createdAt,value
2022-08-02T00:00:16.620Z,19.90
2022-08-02T00:02:45.024Z,19.90
2022-08-02T00:05:17.216Z,19.89
2022-08-02T00:07:45.050Z,19.87
2022-08-02T00:10:13.789Z,19.87
2022-08-02T00:12:41.627Z,19.86
2022-08-02T00:15:16.347Z,19.85
2022-08-02T00:17:45.569Z,19.83
2022-08-02T00:20:16.820Z,19.82
2022-08-02T00:22:45.095Z,19.80
2022-08-02T00:25:13.026Z,19.80
2022-08-02T00:27:40.944Z,19.78
2022-08-02T00:30:09.905Z,19.74
2022-08-02T00:32:37.723Z,19.72
2022-08-02T00:35:06.393Z,19.69
2022-08-02T00:37:40.098Z,19.64
2022-08-02T00:40:09.195Z,19.59
2022-08-02T00:42:37.164Z,19.54
2022-08-02T00:45:05.573Z,19.51
2022-08-02T00:47:33.380Z,19.48
2022-08-02T00:50:01.626Z,19.45
2022-08-02T00:52:29.510Z,19.43
2022-08-02T00:54:58.717Z,19.40
2022-08-02T00:57:26.573Z,19.37
2022-08-02T00:59:54.375Z,19.35
2022-08-02T01:02:22.483Z,19.32
2022-08-02T01:04:50.377Z,19.31
2022-08-02T01:07:18.735Z,19.30
2022-08-02T01:09:49.320Z,19.25
2022-08-02T01:12:18.591Z,19.21
2022-08-02T01:14:50.057Z,19.19
2022-08-02T01:17:24.090Z,19.16
2022-08-02T01:20:01.642Z,19.13
2022-08-02T01:23:03.565Z,19.09
2022-08-02T01:25:54.763Z,19.05
2022-08-02T01:28:37.385Z,19.03
2022-08-02T01:31:17.947Z,19.03
2022-08-02T01:33:52.166Z,19.01
2022-08-02T01:36:23.292Z,19.01
2022-08-02T01:38:54.011Z,19.02
2022-08-02T01:41:25.153Z,19.03
2022-08-02T01:43:58.940Z,19.03
2022-08-02T01:46:29.041Z,19.05
2022-08-02T01:48:59.209Z,19.05
2022-08-02T01:51:43.171Z,19.05
2022-08-02T01:54:16.605Z,19.05
2022-08-02T01:56:46.621Z,19.04
2022-08-02T01:59:19.832Z,19.03
2022-08-02T02:01:50.187Z,19.04
2022-08-02T02:04:18.774Z,19.02
2022-08-02T02:06:48.700Z,19.02
2022-08-02T02:09:17.271Z,19.00
2022-08-02T02:12:09.478Z,19.00
2022-08-02T02:14:38.431Z,18.97
2022-08-02T02:17:08.189Z,18.94
2022-08-02T02:19:59.208Z,18.89
2022-08-02T02:22:27.377Z,18.85
2022-08-02T02:24:55.548Z,18.81
2022-08-02T02:27:24.952Z,18.78
2022-08-02T02:29:55.890Z,18.74
2022-08-02T02:32:26.482Z,18.69
2022-08-02T02:34:56.605Z,18.66
2022-08-02T02:37:27.689Z,18.63
2022-08-02T02:39:58.164Z,18.59
2022-08-02T02:42:31.306Z,18.54
2022-08-02T02:45:01.206Z,18.52
2022-08-02T02:47:40.348Z,18.48
2022-08-02T02:50:10.850Z,18.43
2022-08-02T02:52:40.873Z,18.41
2022-08-02T02:55:11.170Z,18.36
2022-08-02T02:57:40.038Z,18.33
2022-08-02T03:00:12.807Z,18.30
2022-08-02T03:02:42.461Z,18.27
2022-08-02T03:05:12.003Z,18.25
2022-08-02T03:07:40.636Z,18.22
2022-08-02T03:10:09.939Z,18.20
2022-08-02T03:12:38.467Z,18.17
2022-08-02T03:15:11.421Z,18.14
2022-08-02T03:17:43.601Z,18.13
2022-08-02T03:20:14.191Z,18.11
2022-08-02T03:22:42.876Z,18.08
2022-08-02T03:25:11.418Z,18.06
2022-08-02T03:27:39.500Z,18.04
2022-08-02T03:30:12.758Z,18.04
2022-08-02T03:32:42.411Z,18.03
2022-08-02T03:35:13.347Z,18.03
2022-08-02T03:37:42.045Z,18.05
2022-08-02T03:40:13.672Z,18.06
2022-08-02T03:42:42.399Z,18.06
2022-08-02T03:45:14.805Z,18.06
2022-08-02T03:47:44.223Z,18.07
2022-08-02T03:50:13.729Z,18.07
2022-08-02T03:52:43.471Z,18.06
2022-08-02T03:55:12.565Z,18.05
2022-08-02T03:57:41.706Z,18.05
2022-08-02T04:00:14.125Z,18.05
2022-08-02T04:02:42.159Z,18.05
2022-08-02T04:05:10.441Z,18.03
2022-08-02T04:08:34.490Z,18.02
2022-08-02T04:10:26.901Z,18.01
2022-08-02T04:12:55.659Z,18.01
2022-08-02T04:15:25.765Z,17.99
2022-08-02T04:17:57.826Z,17.98
2022-08-02T04:20:29.485Z,17.94
2022-08-02T04:23:01.511Z,17.92
2022-08-02T04:25:35.776Z,17.88
2022-08-02T04:28:17.027Z,17.87
2022-08-02T04:30:48.501Z,17.85
2022-08-02T04:33:16.877Z,17.83
2022-08-02T04:35:45.970Z,17.82
2022-08-02T04:38:15.757Z,17.81
2022-08-02T04:40:52.332Z,17.78
2022-08-02T04:43:20.837Z,17.78
2022-08-02T04:45:52.543Z,17.79
2022-08-02T04:48:20.680Z,17.77
2022-08-02T04:50:48.586Z,17.76
2022-08-02T04:53:16.552Z,17.75
2022-08-02T04:55:44.520Z,17.75
2022-08-02T04:58:37.436Z,17.75
2022-08-02T05:01:01.974Z,17.75
2022-08-02T05:03:29.915Z,17.75
2022-08-02T05:05:57.772Z,17.76
2022-08-02T05:08:25.639Z,17.76
2022-08-02T05:10:54.150Z,17.77
2022-08-02T05:13:22.107Z,17.80
2022-08-02T05:15:50.603Z,17.79
2022-08-02T05:18:21.359Z,17.81
2022-08-02T05:20:49.870Z,17.82
2022-08-02T05:23:17.710Z,17.84
2022-08-02T05:25:45.863Z,17.87
2022-08-02T05:28:13.897Z,17.91
2022-08-02T05:30:41.853Z,17.95
2022-08-02T05:33:09.824Z,18.01
2022-08-02T05:35:42.380Z,18.07
2022-08-02T05:38:10.515Z,18.12
2022-08-02T05:40:54.808Z,18.18
2022-08-02T05:43:23.382Z,18.23
2022-08-02T05:45:53.542Z,18.29
2022-08-02T05:48:22.025Z,18.34
2022-08-02T05:51:04.141Z,18.37
2022-08-02T05:53:38.151Z,18.43
2022-08-02T05:56:17.451Z,18.49
2022-08-02T05:58:54.238Z,18.53
2022-08-02T06:01:29.751Z,18.57
2022-08-02T06:04:00.809Z,18.64
2022-08-02T06:06:33.518Z,18.70
2022-08-02T06:09:04.174Z,18.79
2022-08-02T06:11:36.909Z,18.85
2022-08-02T06:14:06.409Z,18.93
2022-08-02T06:16:37.620Z,18.98
2022-08-02T06:19:10.647Z,19.01
2022-08-02T06:22:32.371Z,19.06
2022-08-02T06:24:31.744Z,19.09
2022-08-02T06:27:00.883Z,19.14
2022-08-02T06:29:29.567Z,19.21
2022-08-02T06:31:58.057Z,19.34
2022-08-02T06:34:26.122Z,19.50
2022-08-02T06:37:07.624Z,19.67
2022-08-02T06:39:44.684Z,19.87
2022-08-02T06:42:16.527Z,20.10
2022-08-02T06:44:57.680Z,20.32
2022-08-02T06:47:25.933Z,20.51
2022-08-02T06:49:54.946Z,20.66
2022-08-02T06:52:30.961Z,20.80
2022-08-02T06:55:00.852Z,20.98
2022-08-02T06:57:29.198Z,21.22
2022-08-02T06:59:57.106Z,21.55
2022-08-02T07:02:25.412Z,21.81
2022-08-02T07:04:53.520Z,22.06
2022-08-02T07:07:21.509Z,22.23
2022-08-02T07:09:56.984Z,22.38
2022-08-02T07:12:31.003Z,22.55
2022-08-02T07:14:59.573Z,22.57
2022-08-02T07:17:27.734Z,22.63
2022-08-02T07:19:55.734Z,22.88
2022-08-02T07:22:24.631Z,23.08
2022-08-02T07:24:54.978Z,23.29
2022-08-02T07:27:23.296Z,23.62
2022-08-02T07:29:51.268Z,23.82
2022-08-02T07:32:19.897Z,23.91
2022-08-02T07:34:52.742Z,23.98
2022-08-02T07:37:35.877Z,24.10
2022-08-02T07:40:15.279Z,24.18
2022-08-02T07:42:48.845Z,24.41
2022-08-02T07:45:16.859Z,24.61
2022-08-02T07:47:45.928Z,24.79
2022-08-02T07:50:15.493Z,25.06
2022-08-02T07:52:44.377Z,25.38
2022-08-02T07:55:15.140Z,25.76
2022-08-02T07:57:46.443Z,25.95
2022-08-02T08:00:17.216Z,26.12
2022-08-02T08:02:45.679Z,26.11
2022-08-02T08:05:14.056Z,26.29
2022-08-02T08:07:42.246Z,26.59
2022-08-02T08:10:11.212Z,26.86
2022-08-02T08:12:40.649Z,27.06
2022-08-02T08:15:09.586Z,27.20
2022-08-02T08:17:38.390Z,27.29
2022-08-02T08:20:07.551Z,27.46
2022-08-02T08:22:35.523Z,27.54
2022-08-02T08:25:04.102Z,27.66
2022-08-02T08:27:32.312Z,27.72
2022-08-02T08:30:01.580Z,27.52
2022-08-02T08:32:29.567Z,27.47
2022-08-02T08:34:57.528Z,27.58
2022-08-02T08:37:25.456Z,27.78
2022-08-02T08:39:57.154Z,27.84
2022-08-02T08:42:27.355Z,27.89
2022-08-02T08:44:56.109Z,28.02
2022-08-02T08:47:33.800Z,28.22
2022-08-02T08:50:05.534Z,28.44
2022-08-02T08:52:37.155Z,28.61
2022-08-02T08:55:06.834Z,28.79
2022-08-02T08:57:38.579Z,29.03
2022-08-02T09:00:07.636Z,29.22
2022-08-02T09:02:37.770Z,29.24
2022-08-02T09:05:06.523Z,29.29
2022-08-02T09:07:34.415Z,29.40
2022-08-02T09:10:02.345Z,29.54
2022-08-02T09:12:30.272Z,29.78
2022-08-02T09:14:58.256Z,29.93
2022-08-02T09:17:26.168Z,29.94
2022-08-02T09:20:09.629Z,30.13
2022-08-02T09:22:37.600Z,30.36
2022-08-02T09:25:06.266Z,30.44
2022-08-02T09:27:38.171Z,30.42
2022-08-02T09:30:15.500Z,30.49
2022-08-02T09:32:50.053Z,30.54
2022-08-02T09:36:06.828Z,30.40
2022-08-02T09:38:25.953Z,30.52
2022-08-02T09:40:54.274Z,30.58
2022-08-02T09:43:22.484Z,30.63
2022-08-02T09:45:50.355Z,30.80
2022-08-02T09:48:18.270Z,30.93
2022-08-02T09:50:47.524Z,30.91
2022-08-02T09:53:15.555Z,31.10
2022-08-02T09:55:43.954Z,31.21
2022-08-02T09:58:19.478Z,31.29
2022-08-02T10:00:55.011Z,31.27
2022-08-02T10:03:23.048Z,31.35
2022-08-02T10:06:03.121Z,31.34
2022-08-02T10:08:33.515Z,31.34
2022-08-02T10:11:02.598Z,31.27
2022-08-02T10:13:32.606Z,31.34
2022-08-02T10:16:00.578Z,31.39
2022-08-02T10:18:38.768Z,31.23
2022-08-02T10:21:14.725Z,31.13
2022-08-02T10:23:45.636Z,31.35
2022-08-02T10:26:18.790Z,31.36
2022-08-02T10:28:49.570Z,31.49
2022-08-02T10:31:24.663Z,31.45
2022-08-02T10:33:55.303Z,31.20
2022-08-02T10:36:27.315Z,31.08
2022-08-02T10:38:58.678Z,31.49
2022-08-02T10:41:43.663Z,31.18
2022-08-02T10:44:24.503Z,30.87
2022-08-02T10:46:53.689Z,31.06
2022-08-02T10:49:40.012Z,31.21
2022-08-02T10:52:11.066Z,31.46
2022-08-02T10:54:41.005Z,31.58
2022-08-02T10:57:21.347Z,31.66
2022-08-02T10:59:50.822Z,31.71
2022-08-02T11:02:45.119Z,31.70
2022-08-02T11:05:18.107Z,31.81
2022-08-02T11:07:49.638Z,31.88
2022-08-02T11:10:38.972Z,31.83
2022-08-02T11:13:15.135Z,31.66
2022-08-02T11:15:59.192Z,31.77
2022-08-02T11:19:00.573Z,31.60
2022-08-02T11:21:30.280Z,31.69
2022-08-02T11:24:31.261Z,31.73
2022-08-02T11:27:00.323Z,31.88
2022-08-02T11:29:39.994Z,31.89
2022-08-02T11:32:16.207Z,31.88
2022-08-02T11:34:45.599Z,31.95
2022-08-02T11:37:13.621Z,32.09
2022-08-02T11:39:51.610Z,32.15
2022-08-02T11:42:19.684Z,32.15
2022-08-02T11:44:49.303Z,32.07
2022-08-02T11:47:17.177Z,32.10
2022-08-02T11:49:45.530Z,32.09
2022-08-02T11:52:13.743Z,32.12
2022-08-02T11:54:44.728Z,32.02
2022-08-02T11:57:19.263Z,31.97
2022-08-02T11:59:51.537Z,31.94
2022-08-02T12:02:20.929Z,31.89
2022-08-02T12:04:58.526Z,31.85
2022-08-02T12:07:34.746Z,31.88
2022-08-02T12:10:09.989Z,31.92
2022-08-02T12:12:50.984Z,31.68
2022-08-02T12:15:34.259Z,31.71
2022-08-02T12:18:20.342Z,31.92
2022-08-02T12:20:48.513Z,32.12
2022-08-02T12:23:16.748Z,32.36
2022-08-02T12:25:46.333Z,32.56
2022-08-02T12:28:17.745Z,32.65
2022-08-02T12:30:54.600Z,32.65
2022-08-02T12:33:23.726Z,32.80
2022-08-02T12:35:52.868Z,32.95
2022-08-02T12:38:21.212Z,33.03
2022-08-02T12:40:50.827Z,33.07
2022-08-02T12:43:21.507Z,33.09
2022-08-02T12:45:53.439Z,33.05
2022-08-02T12:48:37.686Z,32.98
2022-08-02T12:51:20.598Z,32.90
2022-08-02T12:53:59.862Z,32.94
2022-08-02T12:56:31.746Z,32.94
2022-08-02T12:59:00.140Z,32.97
2022-08-02T13:01:29.913Z,33.08
2022-08-02T13:04:10.056Z,33.21
2022-08-02T13:06:44.450Z,33.23
2022-08-02T13:09:16.052Z,33.24
2022-08-02T13:11:48.120Z,33.32
2022-08-02T13:14:16.657Z,33.48
2022-08-02T13:16:46.391Z,33.39
2022-08-02T13:19:15.593Z,33.31
2022-08-02T13:22:11.197Z,33.34
2022-08-02T13:24:40.076Z,33.43
2022-08-02T13:27:23.714Z,33.59
2022-08-02T13:29:51.792Z,33.55
2022-08-02T13:32:23.798Z,33.52
2022-08-02T13:34:52.095Z,33.53
2022-08-02T13:37:20.382Z,33.66
2022-08-02T13:40:11.853Z,33.86
2022-08-02T13:42:41.651Z,33.96
2022-08-02T13:45:12.044Z,33.88
2022-08-02T13:47:57.430Z,33.79
2022-08-02T13:50:31.206Z,33.80
2022-08-02T13:53:01.635Z,33.90
2022-08-02T13:55:29.596Z,33.96
2022-08-02T13:57:59.278Z,33.90
2022-08-02T14:00:35.828Z,34.13
2022-08-02T14:03:07.826Z,34.36
2022-08-02T14:05:48.182Z,34.44
2022-08-02T14:08:17.959Z,34.43
2022-08-02T14:10:46.962Z,34.51
2022-08-02T14:13:16.876Z,34.50
2022-08-02T14:15:45.412Z,34.49
2022-08-02T14:18:14.906Z,34.53
2022-08-02T14:20:43.080Z,34.54
2022-08-02T14:23:10.936Z,34.60
2022-08-02T14:25:39.090Z,34.71
2022-08-02T14:28:07.136Z,34.82
2022-08-02T14:30:37.015Z,34.76
2022-08-02T14:33:05.151Z,34.78
2022-08-02T14:35:33.369Z,34.80
2022-08-02T14:38:01.355Z,34.67
2022-08-02T14:40:31.649Z,34.63
2022-08-02T14:43:00.907Z,34.53
2022-08-02T14:45:40.961Z,34.65
2022-08-02T14:48:12.421Z,34.70
2022-08-02T14:50:40.721Z,34.68
2022-08-02T14:53:12.466Z,34.61
2022-08-02T14:55:43.938Z,34.54
2022-08-02T14:58:12.285Z,34.44
2022-08-02T15:00:43.743Z,34.39
2022-08-02T15:03:15.645Z,34.42
2022-08-02T15:05:43.631Z,34.47
2022-08-02T15:08:11.716Z,34.55
2022-08-02T15:10:45.461Z,34.41
2022-08-02T15:13:13.507Z,34.30
2022-08-02T15:15:43.704Z,34.32
2022-08-02T15:18:14.408Z,34.36
2022-08-02T15:20:47.793Z,34.27
2022-08-02T15:23:37.334Z,34.28
2022-08-02T15:26:07.412Z,34.34
2022-08-02T15:28:35.967Z,34.27
2022-08-02T15:31:03.932Z,34.14
2022-08-02T15:33:33.264Z,34.09
2022-08-02T15:36:01.246Z,34.00
2022-08-02T15:38:29.100Z,33.94
2022-08-02T15:40:58.985Z,33.91
2022-08-02T15:43:27.181Z,33.92
2022-08-02T15:45:55.259Z,33.91
2022-08-02T15:48:23.191Z,33.90
2022-08-02T15:50:52.675Z,33.77
2022-08-02T15:53:22.883Z,33.75
2022-08-02T15:55:52.656Z,33.73
2022-08-02T15:58:34.592Z,33.66
2022-08-02T16:01:12.090Z,33.58
2022-08-02T16:03:40.295Z,33.65
2022-08-02T16:06:09.658Z,33.66
2022-08-02T16:08:51.688Z,33.69
2022-08-02T16:11:22.689Z,33.67
2022-08-02T16:13:56.787Z,33.73
2022-08-02T16:16:26.816Z,33.67
2022-08-02T16:18:55.571Z,33.61
2022-08-02T16:21:25.065Z,33.60
2022-08-02T16:24:01.759Z,33.58
2022-08-02T16:26:31.887Z,33.60
2022-08-02T16:29:00.522Z,33.50
2022-08-02T16:31:28.625Z,33.47
2022-08-02T16:33:57.434Z,33.52
2022-08-02T16:36:28.077Z,33.53
2022-08-02T16:38:56.765Z,33.53
2022-08-02T16:41:50.716Z,33.53
2022-08-02T16:44:15.742Z,33.49
2022-08-02T16:46:45.443Z,33.45
2022-08-02T16:50:04.956Z,33.46
2022-08-02T16:52:06.104Z,33.47
2022-08-02T16:54:38.266Z,33.40
2022-08-02T16:57:07.636Z,33.40
2022-08-02T16:59:42.139Z,33.25
2022-08-02T17:02:18.094Z,33.12
2022-08-02T17:04:46.568Z,33.12
2022-08-02T17:08:06.377Z,33.08
2022-08-02T17:10:06.454Z,33.02
2022-08-02T17:12:37.260Z,32.97
2022-08-02T17:16:07.641Z,32.87
2022-08-02T17:17:54.372Z,32.73
2022-08-02T17:20:23.518Z,32.71
2022-08-02T17:22:53.829Z,32.71
2022-08-02T17:25:22.268Z,32.62
2022-08-02T17:27:56.014Z,32.56
2022-08-02T17:30:26.542Z,32.52
2022-08-02T17:32:57.663Z,32.42
2022-08-02T17:35:51.851Z,32.34
2022-08-02T17:38:26.634Z,32.28
2022-08-02T17:40:56.126Z,32.23
2022-08-02T17:43:32.744Z,32.09
2022-08-02T17:46:02.496Z,31.97
2022-08-02T17:48:55.056Z,31.85
2022-08-02T17:52:16.133Z,31.77
2022-08-02T17:54:13.814Z,31.67
2022-08-02T17:56:42.537Z,31.59
2022-08-02T17:59:20.917Z,31.52
2022-08-02T18:01:52.846Z,31.50
2022-08-02T18:04:27.575Z,31.46
2022-08-02T18:06:57.849Z,31.39
2022-08-02T18:09:28.136Z,31.33
2022-08-02T18:11:56.656Z,31.25
2022-08-02T18:14:26.425Z,31.19
2022-08-02T18:16:54.533Z,31.16
2022-08-02T18:19:22.586Z,31.12
2022-08-02T18:21:50.712Z,31.08
2022-08-02T18:24:19.431Z,31.05
2022-08-02T18:26:53.488Z,31.05
2022-08-02T18:29:21.411Z,30.98
2022-08-02T18:32:00.616Z,30.90
2022-08-02T18:34:31.506Z,30.81
2022-08-02T18:36:59.537Z,30.78
2022-08-02T18:39:27.742Z,30.72
2022-08-02T18:42:02.510Z,30.63
2022-08-02T18:44:31.141Z,30.56
2022-08-02T18:46:59.197Z,30.49
2022-08-02T18:52:31.206Z,30.26
2022-08-02T18:54:59.597Z,30.17
2022-08-02T18:58:17.279Z,30.12
2022-08-02T19:00:26.452Z,30.08
2022-08-02T19:02:55.043Z,30.04
2022-08-02T19:05:24.339Z,30.01
2022-08-02T19:08:12.372Z,29.97
2022-08-02T19:10:49.083Z,29.93
2022-08-02T19:13:19.545Z,29.90
2022-08-02T19:15:48.190Z,29.85
2022-08-02T19:18:16.165Z,29.83
2022-08-02T19:20:48.374Z,29.78
2022-08-02T19:23:17.139Z,29.74
2022-08-02T19:25:54.523Z,29.75
2022-08-02T19:28:26.793Z,29.70
2022-08-02T19:30:55.404Z,29.63
2022-08-02T19:33:54.310Z,29.57
2022-08-02T19:36:11.957Z,29.52
2022-08-02T19:38:43.968Z,29.45
2022-08-02T19:41:13.605Z,29.41
2022-08-02T19:44:24.131Z,29.34
2022-08-02T19:46:31.280Z,29.22
2022-08-02T19:49:20.124Z,29.14
2022-08-02T19:51:55.437Z,29.01
2022-08-02T19:54:54.185Z,28.93
2022-08-02T19:57:17.008Z,28.84
2022-08-02T19:59:49.662Z,28.76
2022-08-02T20:02:18.626Z,28.67
2022-08-02T20:04:50.301Z,28.58
2022-08-02T20:07:54.491Z,28.48
2022-08-02T20:10:10.827Z,28.42
2022-08-02T20:12:39.785Z,28.39
2022-08-02T20:15:14.698Z,28.36
2022-08-02T20:17:47.458Z,28.30
2022-08-02T20:20:16.986Z,28.26
2022-08-02T20:23:03.879Z,28.22
2022-08-02T20:25:53.978Z,28.17
2022-08-02T20:28:23.382Z,28.13
2022-08-02T20:30:53.158Z,28.12
2022-08-02T20:33:24.480Z,28.07
2022-08-02T20:35:53.141Z,28.03
2022-08-02T20:38:24.829Z,27.97
2022-08-02T20:40:55.925Z,27.95
2022-08-02T20:43:31.447Z,27.89
2022-08-02T20:46:07.416Z,27.81
2022-08-02T20:48:36.516Z,27.74
2022-08-02T20:51:09.677Z,27.64
2022-08-02T20:53:56.026Z,27.55
2022-08-02T20:56:24.756Z,27.46
2022-08-02T20:58:53.930Z,27.38
2022-08-02T21:01:36.868Z,27.30
2022-08-02T21:04:05.707Z,27.22
2022-08-02T21:06:34.390Z,27.14
2022-08-02T21:09:06.935Z,27.06
2022-08-02T21:11:35.976Z,27.01
2022-08-02T21:14:08.769Z,26.95
2022-08-02T21:16:38.938Z,26.91
2022-08-02T21:19:08.074Z,26.89
2022-08-02T21:21:38.331Z,26.87
2022-08-02T21:24:06.818Z,26.85
2022-08-02T21:26:39.730Z,26.81
2022-08-02T21:29:09.715Z,26.78
2022-08-02T21:31:44.113Z,26.76
2022-08-02T21:34:22.531Z,26.72
2022-08-02T21:36:55.922Z,26.67
2022-08-02T21:39:24.092Z,26.65
2022-08-02T21:41:53.028Z,26.60
2022-08-02T21:44:22.798Z,26.56
2022-08-02T21:46:54.383Z,26.49
2022-08-02T21:49:40.566Z,26.40
2022-08-02T21:52:16.517Z,26.34
2022-08-02T21:54:45.470Z,26.27
2022-08-02T21:57:16.161Z,26.19
2022-08-02T21:59:45.606Z,26.13
2022-08-02T22:02:16.475Z,26.05
2022-08-02T22:04:47.989Z,26.00
2022-08-02T22:07:17.796Z,25.95
2022-08-02T22:09:52.143Z,25.89
2022-08-02T22:12:26.162Z,25.83
2022-08-02T22:14:56.542Z,25.78
2022-08-02T22:17:51.063Z,25.74
2022-08-02T22:20:20.216Z,25.71
2022-08-02T22:22:50.712Z,25.69
2022-08-02T22:25:26.431Z,25.68
2022-08-02T22:28:37.281Z,25.68
2022-08-02T22:30:56.657Z,25.65
2022-08-02T22:34:00.709Z,25.65
2022-08-02T22:36:30.584Z,25.61
2022-08-02T22:38:58.978Z,25.58
2022-08-02T22:42:00.880Z,25.56
2022-08-02T22:44:18.476Z,25.52
2022-08-02T22:46:46.997Z,25.48
2022-08-02T22:49:38.579Z,25.43
2022-08-02T22:52:07.948Z,25.37
2022-08-02T22:54:35.858Z,25.31
2022-08-02T22:57:03.887Z,25.25
2022-08-02T22:59:00.084Z,30.37
2022-08-02T22:59:35.992Z,25.18
2022-08-02T23:02:08.272Z,25.12
2022-08-02T23:04:37.726Z,25.07
2022-08-02T23:07:05.803Z,25.02
2022-08-02T23:09:33.812Z,24.97
2022-08-02T23:12:02.108Z,24.91
2022-08-02T23:14:30.262Z,24.87
2022-08-02T23:17:15.787Z,24.80
2022-08-02T23:19:55.474Z,24.73
2022-08-02T23:22:30.127Z,24.67
2022-08-02T23:25:01.471Z,24.64
2022-08-02T23:27:30.092Z,24.64
2022-08-02T23:29:58.011Z,24.65
2022-08-02T23:32:26.284Z,24.65
2022-08-02T23:34:55.761Z,24.65
2022-08-02T23:37:23.968Z,24.61
2022-08-02T23:39:52.401Z,24.61
2022-08-02T23:42:20.463Z,24.60
2022-08-02T23:44:48.384Z,24.58
2022-08-02T23:47:16.961Z,24.57
2022-08-02T23:49:45.285Z,24.55
2022-08-02T23:52:14.940Z,24.54
2022-08-02T23:54:43.168Z,24.52
2022-08-02T23:57:19.612Z,24.48
2022-08-02T23:59:49.108Z,24.43
